• Join FlightAware (Why Join?)
  • Login
  • US Flag 
05:13AM EDT


 

Airport Tracker/Info


-or-


 

Live Flight TrackerFlight Track Log ✈ EJA982 ✈ 19-Jun-2013 ✈ KDEN - KSHR

Flight Track Log - Related Links

Times and Time Zones

All times are in EDT time to prevent confusion due to time zone crossing. See the EJA982 flight status page for this flight to view local times or setup timezone preferences in your user account.

Time Position Orientation Groundspeed Altitude Reporting Facility
EDT Latitude Longitude Course Direction KTS MPH feet Rate Location/Type
02:33PM 39.8500 -104.7667 342° North 206 237 8,000  Level Denver TRACON
02:34PM 39.8833 -104.8667 294° West 299 344 10,000 1,680 Climbing Denver TRACON
02:35PM 39.9667 -104.9333 328° Northwest 375 432 11,400 1,500 Climbing Denver TRACON
02:36PM 40.0833 -104.9333 360° North 396 456 13,000 1,740 Climbing Denver TRACON
02:38PM 40.2081 -104.9217 North 395 455 15,400 1,920 Climbing Denver Center
02:39PM 40.5116 -104.8764 342° North  Level FlightAware Approximate
02:39PM 40.3319 -104.9053 North 406 467 17,500  Level Denver Center
02:40PM 40.4431 -104.8936 North 414 476 19,600 1,860 Climbing Denver Center
02:41PM 40.5658 -104.8778 North 415 478 21,400 1,560 Climbing Denver Center
02:42PM 40.6856 -104.8650 North 434 499 22,900 1,380 Climbing Denver Center
02:43PM 40.7989 -104.8594 North 425 489 24,300 1,380 Climbing Denver Center
02:44PM 40.9136 -104.9139 340° North 436 502 25,800 1,500 Climbing Denver Center
02:45PM 41.0472 -104.9819 339° North 445 512 27,500 1,500 Climbing Denver Center
02:46PM 41.1617 -105.0331 341° North 452 520 28,900 1,500 Climbing Denver Center
02:47PM 41.2964 -105.1031 339° North 464 534 30,600 1,500 Climbing Denver Center
02:48PM 41.4119 -105.1644 338° Northwest 466 536 32,100 1,500 Climbing Denver Center
02:49PM 41.5497 -105.2336 339° North 472 543 33,700 1,440 Climbing Denver Center
02:50PM 41.6703 -105.2961 339° North 481 554 35,200 1,080 Climbing Denver Center
02:51PM 41.8139 -105.3697 339° North 491 565 36,000 360 Climbing Denver Center
02:52PM 41.9428 -105.4386 338° Northwest 509 586 36,000  Level Denver Center
02:53PM 42.0942 -105.5161 339° North 519 597 36,000  Level Denver Center
02:54PM 42.2236 -105.5842 339° North 519 597 36,000  Level Denver Center
02:55PM 42.3778 -105.6644 339° North 526 605 36,000  Level Denver Center
02:56PM 42.5086 -105.7358 338° Northwest 528 608 36,000  Level Denver Center
02:57PM 42.6419 -105.8039 339° North 532 612 36,000  Level Denver Center
02:58PM 42.7947 -105.8858 339° North 530 610 36,000  Level Denver Center
02:59PM 42.9267 -105.9561 339° North 529 609 36,000  Level Denver Center
03:00PM 43.0792 -106.0383 339° North 528 608 36,000  Level Denver Center
03:02PM 43.2106 -106.1097 338° Northwest 530 610 36,000  Level Denver Center
03:03PM 43.3631 -106.1931 338° Northwest 527 606 36,000 -1,080 Level Denver Center
03:04PM 43.4925 -106.2642 338° Northwest 524 603 33,800 -2,640 Descending Denver Center
03:05PM 43.6428 -106.3461 338° Northwest 521 600 30,600 -2,880 Descending Denver Center
03:06PM 43.7731 -106.4181 338° Northwest 524 603 27,900 -2,520 Descending Denver Center
03:07PM 43.9244 -106.5028 338° Northwest 526 605 25,500 -2,520 Descending Denver Center
03:08PM 44.0503 -106.5717 339° North 513 590 22,800 -2,760 Descending Denver Center
03:09PM 44.1917 -106.6458 339° North 497 572 19,800 -2,700 Descending Denver Center
03:10PM 44.3064 -106.7106 338° Northwest 481 554 17,300 -2,520 Descending Denver Center
03:11PM 44.4003 -106.7675 337° Northwest 470 541 15,200 -2,460 Descending Salt Lake Center
03:12PM 44.5092 -106.8297 338° Northwest 456 525 12,800 -2,340 Descending Salt Lake Center
03:14PM 44.6986 -106.9269 335° Northwest  Level FlightAware Approximate
03:21PM 44.7667 -106.9667 North  Level FlightAware Approximate
03:22PM 44.7692 -106.9803 North  Level Estimated